Time;durP1;ratioP1;P1;durP2;ratioP2;P2;SDS_P1;SDS_P2;PMS_P1;PMS_P2;Temp;Humidity;BMP_temperature;BMP_pressure;BME280_temperature;BME280_humidity;BME280_pressure;Samples;Min_cycle;Max_cycle;Signal;HPM_P1;HPM_P2
2024/02/08 11:03:59;;;;;;;11.20;4.10;;;;;;;4.53;75.64;97970.36;102742;1289;653930;-77
2024/02/08 11:06:29;;;;;;;8.30;4.30;;;;;;;4.53;75.74;97966.36;105404;1266;95866;-76
2024/02/08 11:09:14;;;;;;;6.90;4.20;;;;;;;4.53;75.69;97967.23;106099;1266;94703;-76
2024/02/08 11:11:59;;;;;;;9.30;4.30;;;;;;;4.51;75.58;97970.14;105428;1269;107128;-80
2024/02/08 11:14:30;;;;;;;7.80;4.40;;;;;;;4.48;75.47;97963.87;105631;1266;95313;-77
2024/02/08 11:17:03;;;;;;;8.90;3.70;;;;;;;4.46;75.41;97948.55;107234;1264;147522;-77
2024/02/08 11:19:34;;;;;;;5.60;3.50;;;;;;;4.43;75.40;97949.06;105330;1267;94585;-77
2024/02/08 11:22:32;;;;;;;5.60;3.50;;;;;;;4.40;75.34;97945.93;104965;1263;94807;-75
2024/02/08 11:24:59;;;;;;;6.70;3.70;;;;;;;4.40;75.55;97947.90;104886;1266;106627;-76
2024/02/08 11:27:31;;;;;;;4.80;3.10;;;;;;;4.37;75.58;97945.40;105555;1263;94593;-77
2024/02/08 11:29:58;;;;;;;5.50;3.20;;;;;;;4.33;75.15;97943.20;107611;1263;107841;-77
2024/02/08 11:32:27;;;;;;;8.20;3.50;;;;;;;4.29;75.17;97941.58;106529;1263;95323;-76
2024/02/08 11:35:00;;;;;;;6.90;3.80;;;;;;;4.26;75.36;97943.90;105190;1266;96201;-76
2024/02/08 11:37:30;;;;;;;9.90;4.10;;;;;;;4.21;75.40;97941.86;105379;1263;108469;-75
2024/02/08 11:40:01;;;;;;;11.10;4.90;;;;;;;4.16;75.37;97938.15;105204;1266;95723;-76
2024/02/08 11:42:36;;;;;;;8.00;4.20;;;;;;;4.15;75.20;97926.66;107460;1263;107664;-76
2024/02/08 11:45:08;;;;;;;12.50;5.20;;;;;;;4.16;75.56;97919.94;105591;1263;95397;-78
2024/02/08 11:47:37;;;;;;;8.50;4.30;;;;;;;4.17;75.26;97925.11;105138;1263;95282;-75
2024/02/08 11:50:08;;;;;;;7.50;4.20;;;;;;;4.19;75.45;97932.02;105041;1264;107934;-76
2024/02/08 11:52:36;;;;;;;9.80;4.20;;;;;;;4.20;75.27;97928.12;105824;1267;95282;-76
2024/02/08 11:55:14;;;;;;;12.30;5.30;;;;;;;4.21;75.24;97930.49;105202;1263;107090;-76
2024/02/08 11:57:43;;;;;;;7.80;4.30;;;;;;;4.20;75.35;97930.73;106086;1263;96180;-74
2024/02/08 12:00:17;;;;;;;7.80;3.50;;;;;;;4.18;75.48;97928.39;106132;1263;96481;-76
2024/02/08 12:02:58;;;;;;;6.80;3.40;;;;;;;4.21;75.24;97928.19;105834;1263;108533;-78
2024/02/08 12:05:29;;;;;;;9.70;5.10;;;;;;;4.21;75.36;97928.41;107671;1256;95197;-77
2024/02/08 12:08:08;;;;;;;10.50;6.10;;;;;;;4.17;75.35;97928.27;105849;1259;110017;-76
2024/02/08 12:10:37;;;;;;;6.50;4.40;;;;;;;4.15;75.36;97926.84;105728;1258;95236;-75
2024/02/08 12:13:05;;;;;;;8.20;4.50;;;;;;;4.13;75.08;97923.44;105887;1254;95179;-76
2024/02/08 12:15:34;;;;;;;7.70;4.70;;;;;;;4.14;75.23;97918.45;106692;1257;95264;-75
2024/02/08 12:18:06;;;;;;;7.10;3.40;;;;;;;4.15;75.12;97911.58;105556;1253;95258;-77
2024/02/08 12:20:36;;;;;;;7.20;3.60;;;;;;;4.13;75.00;97903.05;105822;1254;107187;-81
2024/02/08 12:23:03;;;;;;;8.20;2.90;;;;;;;4.14;75.00;97904.97;107864;1253;94180;-76
2024/02/08 12:25:30;;;;;;;7.10;3.30;;;;;;;4.15;74.97;97918.56;105235;1257;95240;-77
2024/02/08 12:28:04;;;;;;;5.90;3.00;;;;;;;4.17;74.90;97923.55;106476;1254;95231;-76
2024/02/08 12:30:36;;;;;;;8.40;3.50;;;;;;;4.19;75.20;97926.75;105560;1257;96296;-76
2024/02/08 12:33:08;;;;;;;4.80;2.30;;;;;;;4.18;75.05;97919.61;105501;1252;107593;-76
2024/02/08 12:35:40;;;;;;;3.60;2.10;;;;;;;4.13;74.97;97925.54;107892;1253;95336;-76
2024/02/08 12:38:08;;;;;;;5.60;2.00;;;;;;;4.10;74.90;97922.55;105882;1255;95162;-77
2024/02/08 12:40:35;;;;;;;4.30;2.00;;;;;;;4.07;74.70;97916.45;105554;1255;108461;-76
2024/02/08 12:43:07;;;;;;;3.70;2.20;;;;;;;4.02;74.73;97914.83;106247;1253;95320;-75
2024/02/08 12:45:34;;;;;;;3.40;2.10;;;;;;;3.98;74.78;97923.52;105669;1254;107690;-76
2024/02/08 12:48:04;;;;;;;4.80;2.30;;;;;;;3.97;74.70;97924.14;106120;1256;95252;-77
2024/02/08 12:50:34;;;;;;;3.40;2.20;;;;;;;3.96;74.73;97916.43;108259;1251;94203;-77
2024/02/08 12:53:01;;;;;;;7.00;2.40;;;;;;;3.97;74.74;97910.76;105881;1251;110234;-77
2024/02/08 12:55:29;;;;;;;;;;;;;;;3.96;74.62;97905.73;108515;1252;93120;-75
2024/02/08 12:57:57;;;;;;;3.40;1.70;;;;;;;3.93;74.65;97898.09;105708;1257;95249;-75
2024/02/08 13:00:25;;;;;;;3.60;1.70;;;;;;;3.93;74.70;97895.10;105723;1256;95316;-78
2024/02/08 13:02:54;;;;;;;5.40;2.30;;;;;;;3.91;74.66;97888.52;106756;1251;96174;-76
2024/02/08 13:05:29;;;;;;;4.80;2.30;;;;;;;3.89;74.50;97881.84;107442;1253;108028;-77
2024/02/08 13:07:57;;;;;;;4.10;2.10;;;;;;;3.84;74.52;97880.55;106962;1251;95272;-75
2024/02/08 13:10:24;;;;;;;5.90;2.70;;;;;;;3.83;74.54;97878.67;107290;1251;107377;-76
2024/02/08 13:13:01;;;;;;;6.30;3.20;;;;;;;3.84;74.63;97871.48;106253;1256;95224;-79
2024/02/08 13:15:32;;;;;;;7.30;3.20;;;;;;;3.81;74.55;97859.04;106742;1255;95220;-76
2024/02/08 13:18:00;;;;;;;6.10;3.10;;;;;;;3.77;74.53;97854.90;105960;1255;108595;-76
2024/02/08 13:20:27;;;;;;;7.60;3.50;;;;;;;3.75;74.74;97857.29;105810;1255;95476;-75
2024/02/08 13:22:55;;;;;;;7.60;3.00;;;;;;;3.74;74.66;97859.30;106436;1254;95244;-75
2024/02/08 13:25:27;;;;;;;6.70;3.90;;;;;;;3.73;74.52;97856.90;105858;1256;95238;-77
2024/02/08 13:27:57;;;;;;;12.10;5.10;;;;;;;3.69;74.65;97855.54;106596;1255;95156;-77
2024/02/08 13:30:26;;;;;;;10.80;6.30;;;;;;;3.64;74.57;97859.38;105446;1256;110198;-77
2024/02/08 13:32:52;;;;;;;9.50;5.00;;;;;;;3.62;74.57;97853.20;105725;1251;95601;-77
2024/02/08 13:35:26;;;;;;;7.90;4.30;;;;;;;3.62;74.59;97851.48;106691;1254;107129;-77
2024/02/08 13:37:54;;;;;;;9.60;4.20;;;;;;;3.57;74.49;97851.38;105549;1256;95370;-75
2024/02/08 13:40:24;;;;;;;7.60;4.20;;;;;;;3.55;74.76;97850.84;108628;1251;95057;-77
2024/02/08 13:42:58;;;;;;;7.70;3.60;;;;;;;3.49;74.60;97846.32;105549;1257;108488;-76
2024/02/08 13:45:28;;;;;;;11.60;3.80;;;;;;;3.48;74.58;97840.41;107254;1251;95579;-77
2024/02/08 13:47:56;;;;;;;7.70;4.10;;;;;;;3.48;74.58;97835.34;106604;1251;107567;-76
2024/02/08 13:50:23;;;;;;;5.70;3.30;;;;;;;3.45;74.38;97830.29;105556;1256;95235;-76
2024/02/08 13:52:52;;;;;;;7.40;4.40;;;;;;;3.43;74.52;97815.13;108557;1251;93506;-75
2024/02/08 13:55:20;;;;;;;12.60;7.10;;;;;;;3.43;74.61;97810.91;106320;1251;107938;-76
2024/02/08 13:57:52;;;;;;;21.10;9.10;;;;;;;3.42;74.71;97816.59;107487;1252;95239;-78
2024/02/08 14:00:21;;;;;;;16.00;7.50;;;;;;;3.43;74.56;97816.88;105664;1258;107654;-77
2024/02/08 14:02:52;;;;;;;11.50;5.40;;;;;;;3.45;74.63;97825.20;107758;1253;95242;-75
2024/02/08 14:05:20;;;;;;;7.40;4.00;;;;;;;3.45;74.56;97823.63;105763;1251;96177;-76
2024/02/08 14:07:47;;;;;;;7.40;3.70;;;;;;;3.46;74.45;97826.20;108490;1254;108112;-75
2024/02/08 14:10:17;;;;;;;8.10;3.60;;;;;;;3.44;74.44;97834.52;106945;1255;95265;-75
2024/02/08 14:12:48;;;;;;;7.00;3.30;;;;;;;3.41;74.52;97835.90;107682;1251;108904;-77
2024/02/08 14:15:21;;;;;;;9.10;3.90;;;;;;;3.38;74.41;97834.02;105681;1251;95243;-77
2024/02/08 14:17:54;;;;;;;6.80;3.90;;;;;;;3.32;74.29;97830.39;108622;1251;94312;-78
2024/02/08 14:20:31;;;;;;;6.90;4.20;;;;;;;3.32;74.35;97824.27;108805;1251;109276;-76
2024/02/08 14:23:00;;;;;;;9.10;4.60;;;;;;;3.32;74.36;97816.17;106141;1251;95494;-76
2024/02/08 14:28:14;;;;;;;6.50;3.90;;;;;;;3.29;74.41;97812.70;105623;1251;95196;-77
2024/02/08 14:30:43;;;;;;;6.00;3.60;;;;;;;3.29;74.54;97811.65;105835;1256;95590;-77
2024/02/08 14:33:17;;;;;;;8.40;4.20;;;;;;;3.29;74.56;97804.95;107533;1255;107804;-78
2024/02/08 14:35:46;;;;;;;8.00;4.00;;;;;;;3.23;74.39;97795.04;106575;1255;95596;-77
2024/02/08 14:38:14;;;;;;;7.70;4.00;;;;;;;3.17;74.47;97791.90;107015;1253;107571;-75
2024/02/08 14:40:41;;;;;;;7.20;3.80;;;;;;;3.14;74.47;97793.63;105928;1256;95246;-78
2024/02/08 14:43:07;;;;;;;9.30;4.40;;;;;;;3.13;74.64;97798.41;105608;1256;95258;-74
2024/02/08 14:45:38;;;;;;;;;;;;;;;3.12;74.47;97805.31;105487;1256;95235;-73
2024/02/08 14:48:09;;;;;;;6.70;3.90;;;;;;;3.06;74.43;97808.19;106330;1256;95328;-74
2024/02/08 14:50:55;;;;;;;6.00;3.20;;;;;;;3.00;74.51;97808.53;108420;1252;107163;-72
2024/02/08 14:53:44;;;;;;;6.00;3.00;;;;;;;2.93;74.23;97807.20;105813;1257;95226;-80
2024/02/08 14:57:09;;;;;;;6.00;4.00;;;;;;;2.85;74.24;97812.44;105596;1263;95264;-84
2024/02/08 15:05:13;;;;;;;;;;;;;;;;;;;;;
2024/02/08 15:11:26;;;;;;;8.30;4.00;;;;;;;2.72;74.29;97807.94;105154;1262;95263;-77
2024/02/08 15:13:54;;;;;;;7.30;4.20;;;;;;;2.69;74.33;97805.15;106942;1262;96032;-77
2024/02/08 15:16:30;;;;;;;9.20;4.40;;;;;;;2.64;74.40;97800.54;106543;1254;109535;-79
2024/02/08 15:18:57;;;;;;;7.50;4.10;;;;;;;2.61;74.19;97801.09;105717;1255;95235;-77
2024/02/08 15:21:24;;;;;;;6.70;4.50;;;;;;;2.57;74.26;97802.91;105574;1257;107603;-78
2024/02/08 15:26:49;;;;;;;6.90;4.10;;;;;;;2.51;74.38;97798.18;105284;1257;97540;-78
2024/02/08 15:29:33;;;;;;;7.80;4.60;;;;;;;2.50;74.46;97792.47;107917;1251;108330;-75
2024/02/08 15:32:17;;;;;;;8.20;4.60;;;;;;;2.46;74.38;97788.48;105699;1251;96577;-77
2024/02/08 15:37:20;;;;;;;10.70;5.80;;;;;;;2.44;74.40;97788.13;105776;1256;96596;-77
2024/02/08 15:42:32;;;;;;;11.20;6.50;;;;;;;2.41;74.37;97779.33;106020;1254;97901;-76
2024/02/08 15:44:59;;;;;;;10.60;6.10;;;;;;;2.39;74.24;97773.88;107524;1254;96494;-77
2024/02/08 15:47:29;;;;;;;12.80;6.30;;;;;;;2.33;74.37;97764.23;105942;1254;97782;-76
2024/02/08 15:49:56;;;;;;;11.10;6.90;;;;;;;2.29;74.09;97763.63;105686;1265;97436;-76
2024/02/08 15:52:34;;;;;;;11.70;6.50;;;;;;;2.28;74.53;97758.95;105706;1254;96552;-72
2024/02/08 15:55:14;;;;;;;13.00;7.40;;;;;;;2.27;74.28;97757.63;105441;1257;109374;-85
2024/02/08 15:57:45;;;;;;;12.30;6.50;;;;;;;2.22;74.30;97756.15;105911;1256;97878;-82
2024/02/08 16:03:01;;;;;;;13.50;7.60;;;;;;;2.20;74.66;97762.02;107808;1254;96498;-77
2024/02/08 16:05:29;;;;;;;13.40;7.90;;;;;;;2.23;74.50;97761.52;105864;1256;96739;-78
2024/02/08 16:08:05;;;;;;;12.60;7.70;;;;;;;2.24;74.56;97761.79;105647;1254;96615;-79
2024/02/08 16:10:32;;;;;;;12.40;6.80;;;;;;;2.21;74.47;97766.87;105390;1257;96751;-77
2024/02/08 16:13:04;;;;;;;11.10;5.90;;;;;;;2.20;74.52;97770.60;105416;1255;96567;-84
2024/02/08 16:15:55;;;;;;;12.20;6.40;;;;;;;2.17;74.40;97763.66;105850;1254;96568;-81
2024/02/08 16:18:26;;;;;;;14.30;8.10;;;;;;;2.14;74.37;97762.43;106704;1258;96654;-84
2024/02/08 16:20:54;;;;;;;14.50;8.10;;;;;;;2.10;74.51;97759.13;105678;1254;109808;-85
2024/02/08 16:23:26;;;;;;;12.60;7.60;;;;;;;2.07;74.41;97758.06;105770;1256;96596;-83
2024/02/08 16:26:05;;;;;;;12.50;7.50;;;;;;;2.05;74.36;97760.98;105575;1266;107075;-81
2024/02/08 16:28:45;;;;;;;11.90;6.50;;;;;;;2.01;74.41;97756.55;105465;1257;97979;-81
2024/02/08 16:33:47;;;;;;;13.70;7.20;;;;;;;1.92;74.30;97756.52;106107;1255;109440;-81
2024/02/08 16:38:57;;;;;;;14.30;7.20;;;;;;;1.89;74.55;97752.45;106420;1255;107575;-73
2024/02/08 16:41:31;;;;;;;12.30;7.50;;;;;;;1.86;73.91;97748.44;105846;1256;96532;-73
2024/02/08 16:44:12;;;;;;;11.40;6.80;;;;;;;1.85;74.46;97745.20;105940;1255;96610;-76
2024/02/08 16:46:40;;;;;;;10.70;6.20;;;;;;;1.81;74.29;97746.16;105508;1257;109525;-77
2024/02/08 16:49:07;;;;;;;10.50;6.10;;;;;;;1.80;74.48;97740.25;105809;1265;96606;-76
2024/02/08 16:51:55;;;;;;;14.00;7.30;;;;;;;1.80;74.25;97742.52;106216;1251;107622;-77
2024/02/08 16:54:33;;;;;;;12.40;6.80;;;;;;;1.76;74.55;97740.09;105923;1251;96606;-77
2024/02/08 16:57:06;;;;;;;12.70;7.70;;;;;;;1.76;74.42;97737.69;105589;1256;96587;-73
2024/02/08 16:59:45;;;;;;;12.60;7.10;;;;;;;1.76;74.45;97735.73;105763;1250;108256;-75
2024/02/08 17:02:26;;;;;;;16.20;8.00;;;;;;;1.76;74.34;97737.52;106810;1256;96602;-74
2024/02/08 17:05:09;;;;;;;13.70;6.80;;;;;;;1.73;74.39;97734.54;105739;1256;107521;-74
2024/02/08 17:10:33;;;;;;;11.70;7.00;;;;;;;1.69;74.40;97731.80;105729;1255;96578;-74
2024/02/08 17:13:10;;;;;;;13.60;7.00;;;;;;;1.68;74.56;97727.66;107144;1255;110487;-78
2024/02/08 17:15:56;;;;;;;15.20;7.50;;;;;;;1.66;74.49;97723.59;105612;1257;96593;-76
2024/02/08 17:18:33;;;;;;;12.30;7.20;;;;;;;1.68;74.54;97725.71;106529;1255;106610;-72
2024/02/08 17:21:13;;;;;;;13.90;7.70;;;;;;;1.69;74.35;97733.20;106138;1256;96606;-74
2024/02/08 17:23:53;;;;;;;14.80;8.50;;;;;;;1.71;74.51;97732.92;106489;1256;97093;-74
2024/02/08 17:29:10;;;;;;;15.30;7.70;;;;;;;1.72;74.47;97718.15;105833;1255;97509;-77
2024/02/08 17:31:43;;;;;;;13.70;8.20;;;;;;;1.71;74.72;97715.09;108543;1251;107208;-77
2024/02/08 17:34:14;;;;;;;13.20;7.10;;;;;;;1.71;74.66;97712.08;107361;1253;96683;-77
2024/02/08 17:36:45;;;;;;;13.00;7.70;;;;;;;1.73;74.65;97710.91;107457;1253;96174;-76
2024/02/08 17:39:35;;;;;;;19.40;9.90;;;;;;;1.73;74.52;97708.85;106461;1254;109546;-77
2024/02/08 17:42:08;;;;;;;17.70;9.30;;;;;;;1.73;74.51;97704.44;105939;1256;96667;-77
2024/02/08 17:44:39;;;;;;;16.20;9.80;;;;;;;1.74;74.76;97701.59;108581;1251;107549;-73
2024/02/08 17:47:07;;;;;;;15.40;8.50;;;;;;;1.74;74.58;97699.14;107241;1250;96604;-74
2024/02/08 17:49:35;;;;;;;17.90;9.40;;;;;;;1.75;74.86;97696.14;106355;1250;96610;-75
2024/02/08 17:52:02;;;;;;;17.40;8.60;;;;;;;1.77;74.66;97696.89;105965;1256;96641;-77
2024/02/08 17:54:31;;;;;;;18.40;10.40;;;;;;;1.76;74.57;97697.67;105644;1256;96506;-78
2024/02/08 17:57:01;;;;;;;21.70;11.40;;;;;;;1.74;74.32;97695.64;105677;1257;106592;-80
2024/02/08 17:59:29;;;;;;;21.60;11.10;;;;;;;1.72;74.63;97691.91;106275;1256;96685;-74
2024/02/08 18:02:01;;;;;;;20.80;10.60;;;;;;;1.73;74.54;97692.42;106087;1256;96587;-74
2024/02/08 18:04:29;;;;;;;25.20;11.20;;;;;;;1.74;74.97;97689.88;106907;1255;109929;-75
2024/02/08 18:07:03;;;;;;;20.50;10.50;;;;;;;1.75;74.61;97687.04;105928;1251;96609;-77
2024/02/08 18:09:39;;;;;;;19.30;10.90;;;;;;;1.76;74.70;97690.98;106444;1254;107421;-78
2024/02/08 18:12:12;;;;;;;18.70;10.50;;;;;;;1.74;74.85;97687.43;105900;1256;96698;-74
2024/02/08 18:14:43;;;;;;;16.60;9.30;;;;;;;1.74;74.87;97686.77;105799;1252;97074;-74
2024/02/08 18:17:26;;;;;;;21.20;11.80;;;;;;;1.76;74.88;97681.25;108531;1251;109513;-74
2024/02/08 18:19:53;;;;;;;18.90;10.60;;;;;;;1.77;74.92;97680.27;105778;1254;96613;-76
2024/02/08 18:22:31;;;;;;;16.80;8.80;;;;;;;1.76;74.78;97678.23;106821;1255;96507;-79
2024/02/08 18:24:58;;;;;;;19.30;10.40;;;;;;;1.74;74.68;97678.20;105455;1257;96590;-76
2024/02/08 18:27:31;;;;;;;19.40;10.50;;;;;;;1.74;74.99;97676.77;106256;1255;96597;-76
2024/02/08 18:29:58;;;;;;;;;;;;;;;1.76;74.55;97674.21;105496;1255;109424;-77
2024/02/08 18:32:29;;;;;;;18.90;10.10;;;;;;;1.76;74.76;97673.70;105559;1257;97371;-76
2024/02/08 18:35:01;;;;;;;20.70;10.90;;;;;;;1.73;74.69;97673.52;105499;1251;107410;-76
2024/02/08 18:37:28;;;;;;;17.70;10.20;;;;;;;1.74;74.82;97670.67;105904;1257;96683;-75
2024/02/08 18:39:55;;;;;;;18.70;10.60;;;;;;;1.73;74.95;97666.35;105472;1265;96592;-77
2024/02/08 18:42:26;;;;;;;21.40;11.40;;;;;;;1.75;74.91;97666.57;105956;1256;96554;-77
2024/02/08 18:44:54;;;;;;;17.30;9.70;;;;;;;1.78;75.10;97661.70;105484;1251;96597;-75
2024/02/08 18:47:21;;;;;;;21.10;11.10;;;;;;;1.77;74.98;97660.33;107093;1256;107542;-78
2024/02/08 18:49:52;;;;;;;;;;;;;;;1.77;74.83;97663.66;106853;1251;96673;-79
2024/02/08 18:52:24;;;;;;;16.40;8.70;;;;;;;1.78;75.11;97666.25;105521;1257;97813;-79
2024/02/08 18:54:53;;;;;;;18.10;10.10;;;;;;;1.78;74.84;97661.71;105673;1254;109291;-76
2024/02/08 18:57:25;;;;;;;19.70;10.20;;;;;;;1.79;75.10;97658.34;106100;1250;96613;-74
2024/02/08 18:59:54;;;;;;;21.40;11.90;;;;;;;1.80;75.02;97650.96;108469;1251;107467;-76
2024/02/08 19:02:27;;;;;;;23.30;11.40;;;;;;;1.81;75.07;97650.70;105616;1257;96965;-80
2024/02/08 19:05:01;;;;;;;21.10;11.00;;;;;;;1.84;74.89;97646.64;107804;1253;94548;-77
2024/02/08 19:07:28;;;;;;;19.60;10.40;;;;;;;1.87;75.21;97644.02;105727;1257;109054;-76
2024/02/08 19:09:55;;;;;;;19.50;10.80;;;;;;;1.88;74.98;97643.97;107998;1252;96578;-77
2024/02/08 19:12:25;;;;;;;20.90;10.80;;;;;;;1.90;75.34;97643.00;106129;1256;96592;-75
2024/02/08 19:14:53;;;;;;;22.10;11.30;;;;;;;1.93;75.02;97636.67;106796;1256;96596;-74
2024/02/08 19:17:21;;;;;;;19.50;11.20;;;;;;;1.94;74.97;97635.23;105943;1254;97826;-77
2024/02/08 19:19:48;;;;;;;20.50;10.30;;;;;;;1.92;74.77;97628.16;105519;1254;109442;-78
2024/02/08 19:22:18;;;;;;;19.70;10.60;;;;;;;1.92;74.96;97631.52;105756;1255;96581;-78
2024/02/08 19:24:45;;;;;;;20.50;10.40;;;;;;;1.90;75.12;97631.44;105585;1251;107335;-77
2024/02/08 19:27:13;;;;;;;23.70;13.20;;;;;;;1.88;75.13;97627.05;105520;1264;96526;-80
2024/02/08 19:29:40;;;;;;;28.90;14.20;;;;;;;1.89;75.11;97623.30;105915;1256;96702;-77
2024/02/08 19:32:13;;;;;;;25.50;12.60;;;;;;;1.90;75.28;97618.67;108509;1254;94851;-75
2024/02/08 19:34:40;;;;;;;25.60;13.50;;;;;;;1.92;75.27;97615.04;107154;1255;96561;-76
2024/02/08 19:37:07;;;;;;;21.90;12.10;;;;;;;1.93;75.09;97605.02;106361;1256;96607;-77
2024/02/08 19:39:36;;;;;;;22.20;12.50;;;;;;;1.95;75.16;97602.52;105948;1256;96581;-77
2024/02/08 19:42:17;;;;;;;19.40;11.40;;;;;;;1.96;75.08;97597.54;105375;1257;97421;-77
2024/02/08 19:44:52;;;;;;;19.50;10.50;;;;;;;1.98;75.31;97590.93;105803;1251;109966;-77
2024/02/08 19:47:21;;;;;;;25.30;12.80;;;;;;;1.98;75.22;97582.39;105526;1254;96577;-78
2024/02/08 19:49:51;;;;;;;25.20;13.20;;;;;;;1.99;75.22;97582.34;107166;1255;105939;-79
2024/02/08 19:52:20;;;;;;;23.60;12.60;;;;;;;1.99;75.31;97577.25;105781;1255;96626;-83
2024/02/08 19:54:48;;;;;;;22.60;11.90;;;;;;;1.99;75.22;97578.63;105408;1257;97924;-77
2024/02/08 19:57:20;;;;;;;21.00;11.80;;;;;;;2.00;75.30;97569.13;105641;1254;109877;-78
2024/02/08 19:59:51;;;;;;;21.60;12.90;;;;;;;2.01;75.17;97569.95;105954;1256;97817;-78
2024/02/08 20:02:26;;;;;;;27.00;13.80;;;;;;;2.03;75.42;97561.98;105425;1257;107622;-73
2024/02/08 20:05:03;;;;;;;24.70;13.40;;;;;;;2.04;75.36;97557.38;107554;1251;96594;-74
2024/02/08 20:07:38;;;;;;;27.00;12.60;;;;;;;2.04;75.27;97555.09;106416;1250;96685;-73
2024/02/08 20:10:12;;;;;;;24.30;13.10;;;;;;;2.03;75.27;97550.20;106857;1255;109346;-77
2024/02/08 20:12:44;;;;;;;26.10;13.30;;;;;;;2.05;75.46;97548.38;106172;1256;96580;-77
2024/02/08 20:15:17;;;;;;;24.80;13.00;;;;;;;2.06;75.28;97544.11;106081;1256;107370;-79
2024/02/08 20:17:51;;;;;;;29.00;13.40;;;;;;;2.07;75.38;97538.97;105846;1256;97277;-76
2024/02/08 20:20:21;;;;;;;24.70;13.10;;;;;;;2.07;75.33;97538.26;105761;1256;96586;-78
2024/02/08 20:22:54;;;;;;;24.10;10.80;;;;;;;2.07;75.34;97535.81;106052;1255;109794;-76
2024/02/08 20:25:26;;;;;;;23.70;11.80;;;;;;;2.05;75.25;97537.14;107202;1255;96581;-80
2024/02/08 20:27:55;;;;;;;19.80;10.90;;;;;;;2.02;75.16;97529.15;107187;1254;107494;-78
2024/02/08 20:30:21;;;;;;;21.40;11.40;;;;;;;2.00;75.47;97526.45;105912;1256;97209;-77
2024/02/08 20:32:51;;;;;;;21.40;10.90;;;;;;;2.01;75.32;97525.54;106905;1251;96616;-78
2024/02/08 20:35:19;;;;;;;19.80;10.70;;;;;;;2.00;75.51;97517.73;108761;1251;107993;-76
2024/02/08 20:37:46;;;;;;;22.20;10.60;;;;;;;2.01;75.46;97513.46;105970;1257;96611;-77
2024/02/08 20:40:13;;;;;;;19.10;10.30;;;;;;;2.03;75.28;97509.31;108336;1256;96942;-77
2024/02/08 20:42:40;;;;;;;20.90;11.20;;;;;;;2.04;75.15;97502.58;105624;1257;97524;-78
2024/02/08 20:45:10;;;;;;;19.80;10.70;;;;;;;2.02;75.29;97498.55;107067;1255;96664;-76
2024/02/08 20:47:37;;;;;;;16.90;9.70;;;;;;;2.00;75.25;97494.10;105588;1256;109636;-76
2024/02/08 20:50:05;;;;;;;18.30;10.60;;;;;;;2.01;75.62;97489.20;106317;1255;96497;-78
2024/02/08 20:52:32;;;;;;;18.00;10.30;;;;;;;2.01;75.36;97488.28;106948;1254;107581;-76
2024/02/08 20:55:00;;;;;;;18.00;10.50;;;;;;;2.02;75.29;97488.23;105565;1265;96593;-77
2024/02/08 20:57:29;;;;;;;19.10;10.50;;;;;;;2.02;75.49;97483.66;107907;1255;94915;-76
2024/02/08 20:59:59;;;;;;;15.30;8.10;;;;;;;2.01;75.49;97484.63;106240;1256;96606;-77
2024/02/08 21:02:28;;;;;;;13.60;8.10;;;;;;;2.02;75.48;97481.41;107119;1255;96895;-77
2024/02/08 21:04:54;;;;;;;11.40;7.50;;;;;;;2.01;75.31;97483.75;107392;1254;107018;-77
2024/02/08 21:07:24;;;;;;;16.40;7.60;;;;;;;2.00;75.65;97478.06;108751;1255;95106;-78
2024/02/08 21:09:52;;;;;;;12.90;7.80;;;;;;;1.99;75.48;97469.69;106295;1257;96719;-76
2024/02/08 21:12:20;;;;;;;15.20;8.00;;;;;;;1.98;75.30;97472.09;106260;1254;110349;-77
2024/02/08 21:14:46;;;;;;;13.20;6.60;;;;;;;1.98;75.60;97471.69;105690;1256;97048;-77
2024/02/08 21:17:15;;;;;;;13.80;7.70;;;;;;;2.00;75.69;97468.97;106031;1264;96607;-78
2024/02/08 21:19:47;;;;;;;16.60;8.40;;;;;;;2.02;75.44;97465.02;107391;1256;96525;-77
2024/02/08 21:22:15;;;;;;;17.10;8.70;;;;;;;2.01;75.69;97461.00;107150;1256;96524;-78
2024/02/08 21:24:41;;;;;;;12.70;7.80;;;;;;;2.02;75.44;97461.65;105683;1256;109838;-76
2024/02/08 21:27:18;;;;;;;13.80;7.70;;;;;;;2.01;75.61;97451.73;106328;1254;97531;-76
2024/02/08 21:29:45;;;;;;;13.00;7.60;;;;;;;2.01;75.68;97451.58;105457;1257;107245;-77
2024/02/08 21:32:12;;;;;;;14.50;7.80;;;;;;;2.02;75.57;97448.39;107385;1255;96628;-77
2024/02/08 21:34:39;;;;;;;10.80;7.60;;;;;;;2.03;75.54;97446.23;106927;1255;96600;-78
2024/02/08 21:37:08;;;;;;;12.80;7.60;;;;;;;2.03;75.51;97441.30;107406;1256;98129;-77
2024/02/08 21:39:46;;;;;;;13.90;7.70;;;;;;;2.03;75.52;97441.33;106739;1254;97544;-76
2024/02/08 21:42:15;;;;;;;12.20;7.20;;;;;;;2.04;75.65;97445.27;105479;1257;107717;-77
2024/02/08 21:44:42;;;;;;;12.10;6.90;;;;;;;2.06;75.71;97446.88;107637;1256;96635;-78
2024/02/08 21:47:09;;;;;;;11.40;7.00;;;;;;;2.04;75.57;97443.69;105723;1257;96516;-77
2024/02/08 21:49:35;;;;;;;11.70;6.10;;;;;;;2.03;75.68;97444.42;106574;1256;96744;-77
2024/02/08 21:52:07;;;;;;;;;;;;;;;2.01;75.74;97457.35;106126;1254;96632;-79
2024/02/08 21:54:34;;;;;;;12.70;6.90;;;;;;;1.99;75.40;97454.86;105945;1257;107186;-77
2024/02/08 21:57:03;;;;;;;13.60;7.50;;;;;;;1.99;75.66;97458.89;105746;1257;97521;-77
2024/02/08 21:59:35;;;;;;;14.50;7.00;;;;;;;1.97;75.45;97452.33;108612;1251;94470;-77
2024/02/08 22:02:07;;;;;;;10.60;6.10;;;;;;;1.95;75.68;97451.94;106223;1256;110043;-77
2024/02/08 22:04:35;;;;;;;15.20;7.00;;;;;;;1.90;75.66;97451.18;105682;1256;96590;-77
2024/02/08 22:07:02;;;;;;;9.40;5.90;;;;;;;1.90;75.73;97439.85;107534;1251;96620;-76
2024/02/08 22:09:29;;;;;;;11.80;6.80;;;;;;;1.92;75.63;97442.70;107110;1251;97561;-76
2024/02/08 22:11:58;;;;;;;10.70;6.70;;;;;;;1.93;75.87;97443.50;106068;1264;96606;-76
2024/02/08 22:14:27;;;;;;;13.20;7.10;;;;;;;1.94;75.97;97445.70;107529;1254;107887;-77
2024/02/08 22:17:07;;;;;;;10.20;6.30;;;;;;;1.96;75.92;97446.14;105854;1257;96610;-77
2024/02/08 22:19:42;;;;;;;12.80;7.60;;;;;;;1.97;75.61;97438.73;105738;1265;107442;-77
2024/02/08 22:22:12;;;;;;;13.70;7.70;;;;;;;1.95;75.65;97439.92;107898;1254;96674;-77
2024/02/08 22:24:40;;;;;;;11.70;7.20;;;;;;;1.94;75.71;97440.84;106039;1256;97125;-77
2024/02/08 22:27:09;;;;;;;13.40;7.30;;;;;;;1.93;75.70;97436.53;105761;1256;109493;-77
2024/02/08 22:29:37;;;;;;;10.90;6.40;;;;;;;1.92;75.78;97431.49;105779;1256;96670;-77
2024/02/08 22:32:07;;;;;;;13.30;6.80;;;;;;;1.92;75.90;97431.86;106879;1256;107160;-77
2024/02/08 22:34:34;;;;;;;11.40;6.60;;;;;;;1.92;75.85;97425.55;106363;1254;98197;-76
2024/02/08 22:37:04;;;;;;;11.60;6.30;;;;;;;1.89;75.82;97426.98;106757;1254;96697;-77
2024/02/08 22:39:30;;;;;;;12.30;6.50;;;;;;;1.85;75.78;97420.09;106646;1254;109627;-77
2024/02/08 22:41:59;;;;;;;11.30;5.80;;;;;;;1.85;75.97;97419.56;105475;1264;97519;-76
2024/02/08 22:44:27;;;;;;;12.00;5.90;;;;;;;1.88;76.02;97415.85;108735;1251;107156;-76
2024/02/08 22:46:54;;;;;;;10.20;5.80;;;;;;;1.89;76.04;97411.22;108804;1251;94483;-77
2024/02/08 22:49:24;;;;;;;8.50;5.60;;;;;;;1.91;76.19;97403.23;106435;1256;97534;-79
2024/02/08 22:51:51;;;;;;;9.20;5.30;;;;;;;1.90;76.13;97401.90;106514;1256;109850;-77
2024/02/08 22:54:20;;;;;;;12.50;6.70;;;;;;;1.94;76.13;97401.86;106000;1254;96587;-78
2024/02/08 22:56:49;;;;;;;9.80;5.40;;;;;;;1.95;75.93;97400.95;105763;1264;107505;-77
2024/02/08 22:59:19;;;;;;;10.30;4.90;;;;;;;1.95;75.95;97397.75;106007;1252;97431;-77
2024/02/08 23:01:53;;;;;;;9.90;5.90;;;;;;;1.94;75.84;97400.45;105847;1254;96597;-77
2024/02/08 23:04:21;;;;;;;9.80;5.50;;;;;;;1.94;76.07;97396.27;105824;1257;109523;-80
2024/02/08 23:06:48;;;;;;;11.10;6.20;;;;;;;1.95;76.19;97392.16;107530;1255;96587;-76
2024/02/08 23:09:18;;;;;;;9.30;5.20;;;;;;;1.95;75.76;97394.44;105794;1256;96791;-76
2024/02/08 23:11:45;;;;;;;11.70;5.40;;;;;;;1.95;76.32;97390.96;105847;1254;96581;-77
2024/02/08 23:14:18;;;;;;;9.10;5.10;;;;;;;1.95;76.09;97390.23;105551;1256;96678;-77
2024/02/08 23:16:45;;;;;;;7.40;4.70;;;;;;;1.96;76.11;97394.59;106445;1251;156469;-78
2024/02/08 23:19:13;;;;;;;11.90;5.50;;;;;;;1.95;76.15;97388.14;105971;1254;96587;-79
2024/02/08 23:21:40;;;;;;;8.70;4.90;;;;;;;1.95;76.18;97375.73;105649;1258;107672;-77